sensor_id;sensor_type;location;lat;lon;timestamp;temperature;humidity
69225;DHT22;56333;51.306;17.056;2023-05-10T00:00:35;10.03;56.72
69225;DHT22;56333;51.306;17.056;2023-05-10T00:02:05;10.02;56.75
69225;DHT22;56333;51.306;17.056;2023-05-10T00:03:35;9.98;56.78
69225;DHT22;56333;51.306;17.056;2023-05-10T00:05:05;9.96;56.90
69225;DHT22;56333;51.306;17.056;2023-05-10T00:06:35;9.94;56.97
69225;DHT22;56333;51.306;17.056;2023-05-10T00:08:04;9.90;57.03
69225;DHT22;56333;51.306;17.056;2023-05-10T00:09:34;9.89;57.05
69225;DHT22;56333;51.306;17.056;2023-05-10T00:11:03;9.85;57.25
69225;DHT22;56333;51.306;17.056;2023-05-10T00:12:32;9.82;57.25
69225;DHT22;56333;51.306;17.056;2023-05-10T00:14:02;9.80;57.58
69225;DHT22;56333;51.306;17.056;2023-05-10T00:15:31;9.80;57.78
69225;DHT22;56333;51.306;17.056;2023-05-10T00:17:00;9.77;57.63
69225;DHT22;56333;51.306;17.056;2023-05-10T00:18:30;9.77;57.53
69225;DHT22;56333;51.306;17.056;2023-05-10T00:20:00;9.75;57.60
69225;DHT22;56333;51.306;17.056;2023-05-10T00:21:29;9.73;57.67
69225;DHT22;56333;51.306;17.056;2023-05-10T00:22:59;9.70;57.83
69225;DHT22;56333;51.306;17.056;2023-05-10T00:24:27;9.70;57.85
69225;DHT22;56333;51.306;17.056;2023-05-10T00:25:57;9.67;57.95
69225;DHT22;56333;51.306;17.056;2023-05-10T00:27:26;9.66;57.92
69225;DHT22;56333;51.306;17.056;2023-05-10T00:28:55;9.62;58.15
69225;DHT22;56333;51.306;17.056;2023-05-10T00:30:25;9.63;58.00
69225;DHT22;56333;51.306;17.056;2023-05-10T00:31:54;9.60;58.08
69225;DHT22;56333;51.306;17.056;2023-05-10T00:33:22;9.60;58.10
69225;DHT22;56333;51.306;17.056;2023-05-10T00:34:51;9.56;58.28
69225;DHT22;56333;51.306;17.056;2023-05-10T00:36:20;9.54;58.30
69225;DHT22;56333;51.306;17.056;2023-05-10T00:37:53;9.53;58.35
69225;DHT22;56333;51.306;17.056;2023-05-10T00:39:23;9.51;58.53
69225;DHT22;56333;51.306;17.056;2023-05-10T00:40:53;9.49;58.45
69225;DHT22;56333;51.306;17.056;2023-05-10T00:42:26;9.46;58.47
69225;DHT22;56333;51.306;17.056;2023-05-10T00:43:55;9.45;58.58
69225;DHT22;56333;51.306;17.056;2023-05-10T00:45:25;9.44;58.58
69225;DHT22;56333;51.306;17.056;2023-05-10T00:46:54;9.42;58.67
69225;DHT22;56333;51.306;17.056;2023-05-10T00:48:24;9.40;58.83
69225;DHT22;56333;51.306;17.056;2023-05-10T00:49:54;9.38;58.88
69225;DHT22;56333;51.306;17.056;2023-05-10T00:51:25;9.36;58.90
69225;DHT22;56333;51.306;17.056;2023-05-10T00:52:55;9.34;58.97
69225;DHT22;56333;51.306;17.056;2023-05-10T00:54:25;9.35;59.05
69225;DHT22;56333;51.306;17.056;2023-05-10T00:55:54;9.32;59.28
69225;DHT22;56333;51.306;17.056;2023-05-10T00:57:24;9.32;59.10
69225;DHT22;56333;51.306;17.056;2023-05-10T00:58:54;9.31;59.20
69225;DHT22;56333;51.306;17.056;2023-05-10T01:00:24;9.30;59.20
69225;DHT22;56333;51.306;17.056;2023-05-10T01:01:53;9.29;59.35
69225;DHT22;56333;51.306;17.056;2023-05-10T01:03:22;9.28;59.47
69225;DHT22;56333;51.306;17.056;2023-05-10T01:04:52;9.26;59.38
69225;DHT22;56333;51.306;17.056;2023-05-10T01:06:21;9.24;59.45
69225;DHT22;56333;51.306;17.056;2023-05-10T01:07:51;9.23;59.58
69225;DHT22;56333;51.306;17.056;2023-05-10T01:09:20;9.22;59.60
69225;DHT22;56333;51.306;17.056;2023-05-10T01:10:50;9.20;59.80
69225;DHT22;56333;51.306;17.056;2023-05-10T01:12:18;9.17;60.10
69225;DHT22;56333;51.306;17.056;2023-05-10T01:13:50;9.17;59.88
69225;DHT22;56333;51.306;17.056;2023-05-10T01:15:22;9.17;59.88
69225;DHT22;56333;51.306;17.056;2023-05-10T01:16:51;9.17;59.90
69225;DHT22;56333;51.306;17.056;2023-05-10T01:18:21;9.14;60.00
69225;DHT22;56333;51.306;17.056;2023-05-10T01:19:51;9.12;60.08
69225;DHT22;56333;51.306;17.056;2023-05-10T01:21:27;9.11;60.13
69225;DHT22;56333;51.306;17.056;2023-05-10T01:23:23;9.09;60.10
69225;DHT22;56333;51.306;17.056;2023-05-10T01:25:14;9.07;60.22
69225;DHT22;56333;51.306;17.056;2023-05-10T01:27:14;9.04;60.28
69225;DHT22;56333;51.306;17.056;2023-05-10T01:29:08;9.03;60.38
69225;DHT22;56333;51.306;17.056;2023-05-10T01:31:17;9.00;60.47
69225;DHT22;56333;51.306;17.056;2023-05-10T01:32:54;8.97;60.45
69225;DHT22;56333;51.306;17.056;2023-05-10T01:34:30;8.95;60.70
69225;DHT22;56333;51.306;17.056;2023-05-10T01:36:05;8.96;60.70
69225;DHT22;56333;51.306;17.056;2023-05-10T01:37:42;8.93;61.03
69225;DHT22;56333;51.306;17.056;2023-05-10T01:39:20;8.92;60.83
69225;DHT22;56333;51.306;17.056;2023-05-10T01:41:00;8.91;61.00
69225;DHT22;56333;51.306;17.056;2023-05-10T01:42:42;8.89;61.10
69225;DHT22;56333;51.306;17.056;2023-05-10T01:44:24;8.88;60.97
69225;DHT22;56333;51.306;17.056;2023-05-10T01:46:01;8.88;61.10
69225;DHT22;56333;51.306;17.056;2023-05-10T01:47:37;8.88;61.40
69225;DHT22;56333;51.306;17.056;2023-05-10T01:49:10;8.89;61.63
69225;DHT22;56333;51.306;17.056;2023-05-10T01:50:45;8.90;61.83
69225;DHT22;56333;51.306;17.056;2023-05-10T01:52:15;8.93;61.85
69225;DHT22;56333;51.306;17.056;2023-05-10T01:53:50;8.95;61.70
69225;DHT22;56333;51.306;17.056;2023-05-10T01:55:25;8.98;61.50
69225;DHT22;56333;51.306;17.056;2023-05-10T01:57:03;8.97;61.33
69225;DHT22;56333;51.306;17.056;2023-05-10T01:58:39;8.97;61.28
69225;DHT22;56333;51.306;17.056;2023-05-10T02:00:12;8.97;61.22
69225;DHT22;56333;51.306;17.056;2023-05-10T02:01:43;8.96;61.25
69225;DHT22;56333;51.306;17.056;2023-05-10T02:03:14;8.94;61.22
69225;DHT22;56333;51.306;17.056;2023-05-10T02:04:42;8.91;61.08
69225;DHT22;56333;51.306;17.056;2023-05-10T02:06:14;8.91;61.28
69225;DHT22;56333;51.306;17.056;2023-05-10T02:07:44;8.91;61.28
69225;DHT22;56333;51.306;17.056;2023-05-10T02:09:13;8.90;61.25
69225;DHT22;56333;51.306;17.056;2023-05-10T02:10:43;8.91;61.25
69225;DHT22;56333;51.306;17.056;2023-05-10T02:12:15;8.89;61.38
69225;DHT22;56333;51.306;17.056;2023-05-10T02:13:45;8.89;61.25
69225;DHT22;56333;51.306;17.056;2023-05-10T02:15:17;8.87;61.42
69225;DHT22;56333;51.306;17.056;2023-05-10T02:16:50;8.87;61.20
69225;DHT22;56333;51.306;17.056;2023-05-10T02:18:20;8.86;61.35
69225;DHT22;56333;51.306;17.056;2023-05-10T02:19:50;8.87;61.45
69225;DHT22;56333;51.306;17.056;2023-05-10T02:21:20;8.86;61.35
69225;DHT22;56333;51.306;17.056;2023-05-10T02:22:50;8.85;61.35
69225;DHT22;56333;51.306;17.056;2023-05-10T02:24:21;8.85;61.58
69225;DHT22;56333;51.306;17.056;2023-05-10T02:25:49;8.82;61.38
69225;DHT22;56333;51.306;17.056;2023-05-10T02:27:19;8.82;61.38
69225;DHT22;56333;51.306;17.056;2023-05-10T02:28:50;8.81;61.58
69225;DHT22;56333;51.306;17.056;2023-05-10T02:30:20;8.80;61.53
69225;DHT22;56333;51.306;17.056;2023-05-10T02:31:50;8.80;61.55
69225;DHT22;56333;51.306;17.056;2023-05-10T02:33:21;8.80;61.70
69225;DHT22;56333;51.306;17.056;2023-05-10T02:34:51;8.80;61.63
69225;DHT22;56333;51.306;17.056;2023-05-10T02:36:22;8.78;61.65
69225;DHT22;56333;51.306;17.056;2023-05-10T02:37:52;8.78;61.92
69225;DHT22;56333;51.306;17.056;2023-05-10T02:39:23;8.79;62.17
69225;DHT22;56333;51.306;17.056;2023-05-10T02:40:54;8.81;62.25
69225;DHT22;56333;51.306;17.056;2023-05-10T02:42:25;8.84;62.25
69225;DHT22;56333;51.306;17.056;2023-05-10T02:43:57;8.87;62.13
69225;DHT22;56333;51.306;17.056;2023-05-10T02:45:30;8.89;61.85
69225;DHT22;56333;51.306;17.056;2023-05-10T02:47:02;8.86;61.75
69225;DHT22;56333;51.306;17.056;2023-05-10T02:48:32;8.87;61.72
69225;DHT22;56333;51.306;17.056;2023-05-10T02:50:03;8.85;61.72
69225;DHT22;56333;51.306;17.056;2023-05-10T02:51:34;8.85;61.58
69225;DHT22;56333;51.306;17.056;2023-05-10T02:53:09;8.85;61.65
69225;DHT22;56333;51.306;17.056;2023-05-10T02:54:45;8.85;61.50
69225;DHT22;56333;51.306;17.056;2023-05-10T02:56:23;8.84;61.60
69225;DHT22;56333;51.306;17.056;2023-05-10T02:57:59;8.82;61.67
69225;DHT22;56333;51.306;17.056;2023-05-10T02:59:29;8.83;61.60
69225;DHT22;56333;51.306;17.056;2023-05-10T03:00:58;8.83;61.65
69225;DHT22;56333;51.306;17.056;2023-05-10T03:02:28;8.82;61.60
69225;DHT22;56333;51.306;17.056;2023-05-10T03:03:57;8.80;61.65
69225;DHT22;56333;51.306;17.056;2023-05-10T03:05:26;8.81;61.83
69225;DHT22;56333;51.306;17.056;2023-05-10T03:06:56;8.81;61.75
69225;DHT22;56333;51.306;17.056;2023-05-10T03:08:25;8.78;61.92
69225;DHT22;56333;51.306;17.056;2023-05-10T03:09:54;8.80;61.80
69225;DHT22;56333;51.306;17.056;2023-05-10T03:11:35;8.78;61.78
69225;DHT22;56333;51.306;17.056;2023-05-10T03:13:20;8.76;61.80
69225;DHT22;56333;51.306;17.056;2023-05-10T03:15:10;8.75;61.90
69225;DHT22;56333;51.306;17.056;2023-05-10T03:16:46;8.76;61.92
69225;DHT22;56333;51.306;17.056;2023-05-10T03:18:37;8.74;61.90
69225;DHT22;56333;51.306;17.056;2023-05-10T03:20:16;8.74;62.00
69225;DHT22;56333;51.306;17.056;2023-05-10T03:21:52;8.75;61.95
69225;DHT22;56333;51.306;17.056;2023-05-10T03:23:30;8.77;61.83
69225;DHT22;56333;51.306;17.056;2023-05-10T03:25:10;8.75;61.90
69225;DHT22;56333;51.306;17.056;2023-05-10T03:26:43;8.75;62.00
69225;DHT22;56333;51.306;17.056;2023-05-10T03:28:15;8.77;61.95
69225;DHT22;56333;51.306;17.056;2023-05-10T03:29:46;8.78;61.95
69225;DHT22;56333;51.306;17.056;2023-05-10T03:31:16;8.80;61.95
69225;DHT22;56333;51.306;17.056;2023-05-10T03:32:45;8.79;61.95
69225;DHT22;56333;51.306;17.056;2023-05-10T03:34:15;8.81;62.15
69225;DHT22;56333;51.306;17.056;2023-05-10T03:35:50;8.84;62.38
69225;DHT22;56333;51.306;17.056;2023-05-10T03:37:19;8.89;62.47
69225;DHT22;56333;51.306;17.056;2023-05-10T03:38:48;8.94;62.40
69225;DHT22;56333;51.306;17.056;2023-05-10T03:40:17;8.99;62.15
69225;DHT22;56333;51.306;17.056;2023-05-10T03:41:47;9.02;61.85
69225;DHT22;56333;51.306;17.056;2023-05-10T03:43:16;9.05;61.63
69225;DHT22;56333;51.306;17.056;2023-05-10T03:44:44;9.06;61.60
69225;DHT22;56333;51.306;17.056;2023-05-10T03:46:13;9.09;61.47
69225;DHT22;56333;51.306;17.056;2023-05-10T03:47:43;9.11;61.40
69225;DHT22;56333;51.306;17.056;2023-05-10T03:49:12;9.14;61.30
69225;DHT22;56333;51.306;17.056;2023-05-10T03:50:41;9.24;61.17
69225;DHT22;56333;51.306;17.056;2023-05-10T03:52:10;9.35;60.95
69225;DHT22;56333;51.306;17.056;2023-05-10T03:53:40;9.51;60.70
69225;DHT22;56333;51.306;17.056;2023-05-10T03:55:10;9.62;60.38
69225;DHT22;56333;51.306;17.056;2023-05-10T03:56:39;9.74;60.08
69225;DHT22;56333;51.306;17.056;2023-05-10T03:58:10;9.81;59.88
69225;DHT22;56333;51.306;17.056;2023-05-10T03:59:39;9.91;59.70
69225;DHT22;56333;51.306;17.056;2023-05-10T04:01:09;10.03;59.47
69225;DHT22;56333;51.306;17.056;2023-05-10T04:02:39;10.14;59.20
69225;DHT22;56333;51.306;17.056;2023-05-10T04:04:13;10.33;58.85
69225;DHT22;56333;51.306;17.056;2023-05-10T04:05:43;10.64;58.40
69225;DHT22;56333;51.306;17.056;2023-05-10T04:07:12;11.12;57.67
69225;DHT22;56333;51.306;17.056;2023-05-10T04:08:42;11.69;56.50
69225;DHT22;56333;51.306;17.056;2023-05-10T04:10:11;12.22;55.45
69225;DHT22;56333;51.306;17.056;2023-05-10T04:11:41;12.74;54.70
69225;DHT22;56333;51.306;17.056;2023-05-10T04:13:10;13.28;54.05
69225;DHT22;56333;51.306;17.056;2023-05-10T04:14:39;13.75;52.78
69225;DHT22;56333;51.306;17.056;2023-05-10T04:16:09;14.22;51.92
69225;DHT22;56333;51.306;17.056;2023-05-10T04:17:38;14.70;50.90
69225;DHT22;56333;51.306;17.056;2023-05-10T04:19:07;15.15;50.13
69225;DHT22;56333;51.306;17.056;2023-05-10T04:20:36;15.53;49.20
69225;DHT22;56333;51.306;17.056;2023-05-10T04:22:05;15.93;48.38
69225;DHT22;56333;51.306;17.056;2023-05-10T04:23:34;16.28;47.55
69225;DHT22;56333;51.306;17.056;2023-05-10T04:25:04;16.65;46.83
69225;DHT22;56333;51.306;17.056;2023-05-10T04:26:35;17.01;45.58
69225;DHT22;56333;51.306;17.056;2023-05-10T04:28:03;17.38;46.47
69225;DHT22;56333;51.306;17.056;2023-05-10T04:29:32;17.75;45.33
69225;DHT22;56333;51.306;17.056;2023-05-10T04:31:04;18.14;43.67
69225;DHT22;56333;51.306;17.056;2023-05-10T04:32:36;18.48;43.08
69225;DHT22;56333;51.306;17.056;2023-05-10T04:34:05;18.96;42.78
69225;DHT22;56333;51.306;17.056;2023-05-10T04:35:34;19.33;41.33
69225;DHT22;56333;51.306;17.056;2023-05-10T04:37:04;19.69;40.45
69225;DHT22;56333;51.306;17.056;2023-05-10T04:38:33;19.99;39.70
69225;DHT22;56333;51.306;17.056;2023-05-10T04:40:06;20.34;38.75
69225;DHT22;56333;51.306;17.056;2023-05-10T04:41:37;20.67;38.83
69225;DHT22;56333;51.306;17.056;2023-05-10T04:43:06;20.95;38.13
69225;DHT22;56333;51.306;17.056;2023-05-10T04:44:35;21.18;37.72
69225;DHT22;56333;51.306;17.056;2023-05-10T04:46:06;21.35;37.42
69225;DHT22;56333;51.306;17.056;2023-05-10T04:47:35;21.61;36.58
69225;DHT22;56333;51.306;17.056;2023-05-10T04:49:04;21.82;36.50
69225;DHT22;56333;51.306;17.056;2023-05-10T04:50:32;22.01;35.92
69225;DHT22;56333;51.306;17.056;2023-05-10T04:52:02;22.17;35.17
69225;DHT22;56333;51.306;17.056;2023-05-10T04:53:31;22.47;34.88
69225;DHT22;56333;51.306;17.056;2023-05-10T04:55:00;22.52;34.47
69225;DHT22;56333;51.306;17.056;2023-05-10T04:56:29;22.79;33.70
69225;DHT22;56333;51.306;17.056;2023-05-10T04:57:58;23.05;33.58
69225;DHT22;56333;51.306;17.056;2023-05-10T04:59:27;23.32;32.83
69225;DHT22;56333;51.306;17.056;2023-05-10T05:00:55;23.55;32.53
69225;DHT22;56333;51.306;17.056;2023-05-10T05:02:32;23.90;32.17
69225;DHT22;56333;51.306;17.056;2023-05-10T05:04:01;24.08;32.15
69225;DHT22;56333;51.306;17.056;2023-05-10T05:05:31;24.21;31.92
69225;DHT22;56333;51.306;17.056;2023-05-10T05:07:00;24.44;31.27
69225;DHT22;56333;51.306;17.056;2023-05-10T05:08:29;24.65;30.98
69225;DHT22;56333;51.306;17.056;2023-05-10T05:09:58;24.89;30.05
69225;DHT22;56333;51.306;17.056;2023-05-10T05:11:27;25.13;30.10
69225;DHT22;56333;51.306;17.056;2023-05-10T05:12:56;25.28;29.25
69225;DHT22;56333;51.306;17.056;2023-05-10T05:14:25;25.55;29.10
69225;DHT22;56333;51.306;17.056;2023-05-10T05:15:54;25.72;29.55
69225;DHT22;56333;51.306;17.056;2023-05-10T05:17:25;25.84;29.05
69225;DHT22;56333;51.306;17.056;2023-05-10T05:18:54;25.97;29.02
69225;DHT22;56333;51.306;17.056;2023-05-10T05:20:23;26.18;28.63
69225;DHT22;56333;51.306;17.056;2023-05-10T05:21:52;26.35;28.08
69225;DHT22;56333;51.306;17.056;2023-05-10T05:23:21;26.47;28.20
69225;DHT22;56333;51.306;17.056;2023-05-10T05:24:51;26.55;28.13
69225;DHT22;56333;51.306;17.056;2023-05-10T05:26:20;26.61;28.08
69225;DHT22;56333;51.306;17.056;2023-05-10T05:27:49;26.58;27.63
69225;DHT22;56333;51.306;17.056;2023-05-10T05:29:18;26.54;27.52
69225;DHT22;56333;51.306;17.056;2023-05-10T05:30:47;26.49;27.77
69225;DHT22;56333;51.306;17.056;2023-05-10T05:32:16;26.30;27.77
69225;DHT22;56333;51.306;17.056;2023-05-10T05:33:45;26.16;27.77
69225;DHT22;56333;51.306;17.056;2023-05-10T05:35:14;25.78;27.98
69225;DHT22;56333;51.306;17.056;2023-05-10T05:36:43;25.46;28.17
69225;DHT22;56333;51.306;17.056;2023-05-10T05:38:12;24.98;28.33
69225;DHT22;56333;51.306;17.056;2023-05-10T05:39:41;24.47;28.83
69225;DHT22;56333;51.306;17.056;2023-05-10T05:41:11;23.76;29.33
69225;DHT22;56333;51.306;17.056;2023-05-10T05:42:40;22.90;30.02
69225;DHT22;56333;51.306;17.056;2023-05-10T05:44:09;22.07;30.70
69225;DHT22;56333;51.306;17.056;2023-05-10T05:45:38;21.34;31.67
69225;DHT22;56333;51.306;17.056;2023-05-10T05:47:07;20.75;32.15
69225;DHT22;56333;51.306;17.056;2023-05-10T05:48:35;20.11;32.92
69225;DHT22;56333;51.306;17.056;2023-05-10T05:50:05;19.55;33.67
69225;DHT22;56333;51.306;17.056;2023-05-10T05:51:36;18.98;34.40
69225;DHT22;56333;51.306;17.056;2023-05-10T05:53:04;18.48;35.08
69225;DHT22;56333;51.306;17.056;2023-05-10T05:54:33;18.03;35.72
69225;DHT22;56333;51.306;17.056;2023-05-10T05:56:02;17.62;36.33
69225;DHT22;56333;51.306;17.056;2023-05-10T05:57:35;17.26;37.00
69225;DHT22;56333;51.306;17.056;2023-05-10T05:59:04;16.93;37.58
69225;DHT22;56333;51.306;17.056;2023-05-10T06:00:33;16.65;38.78
69225;DHT22;56333;51.306;17.056;2023-05-10T06:02:02;16.45;38.75
69225;DHT22;56333;51.306;17.056;2023-05-10T06:03:32;16.16;39.70
69225;DHT22;56333;51.306;17.056;2023-05-10T06:05:01;15.98;39.88
69225;DHT22;56333;51.306;17.056;2023-05-10T06:06:31;15.84;40.58
69225;DHT22;56333;51.306;17.056;2023-05-10T06:08:02;15.73;40.88
69225;DHT22;56333;51.306;17.056;2023-05-10T06:09:31;15.54;41.50
69225;DHT22;56333;51.306;17.056;2023-05-10T06:11:00;15.34;41.63
69225;DHT22;56333;51.306;17.056;2023-05-10T06:12:29;15.22;41.97
69225;DHT22;56333;51.306;17.056;2023-05-10T06:13:58;15.10;42.45
69225;DHT22;56333;51.306;17.056;2023-05-10T06:15:28;14.96;42.78
69225;DHT22;56333;51.306;17.056;2023-05-10T06:16:57;14.85;43.13
69225;DHT22;56333;51.306;17.056;2023-05-10T06:18:27;14.76;43.45
69225;DHT22;56333;51.306;17.056;2023-05-10T06:19:57;14.64;44.10
69225;DHT22;56333;51.306;17.056;2023-05-10T06:21:26;14.58;44.65
69225;DHT22;56333;51.306;17.056;2023-05-10T06:22:55;14.55;44.67
69225;DHT22;56333;51.306;17.056;2023-05-10T06:24:24;14.56;44.65
69225;DHT22;56333;51.306;17.056;2023-05-10T06:25:54;14.56;44.80
69225;DHT22;56333;51.306;17.056;2023-05-10T06:27:22;14.56;44.78
69225;DHT22;56333;51.306;17.056;2023-05-10T06:28:53;14.54;44.90
69225;DHT22;56333;51.306;17.056;2023-05-10T06:30:22;14.53;45.25
69225;DHT22;56333;51.306;17.056;2023-05-10T06:31:52;14.54;45.17
69225;DHT22;56333;51.306;17.056;2023-05-10T06:33:23;14.51;45.13
69225;DHT22;56333;51.306;17.056;2023-05-10T06:34:54;14.51;45.42
69225;DHT22;56333;51.306;17.056;2023-05-10T06:36:23;14.52;45.25
69225;DHT22;56333;51.306;17.056;2023-05-10T06:37:53;14.51;45.33
69225;DHT22;56333;51.306;17.056;2023-05-10T06:39:22;14.51;45.47
69225;DHT22;56333;51.306;17.056;2023-05-10T06:40:51;14.53;45.72
69225;DHT22;56333;51.306;17.056;2023-05-10T06:42:21;14.57;45.63
69225;DHT22;56333;51.306;17.056;2023-05-10T06:43:51;14.61;46.00
69225;DHT22;56333;51.306;17.056;2023-05-10T06:45:20;14.65;45.78
69225;DHT22;56333;51.306;17.056;2023-05-10T06:46:49;14.66;45.75
69225;DHT22;56333;51.306;17.056;2023-05-10T06:48:20;14.71;45.72
69225;DHT22;56333;51.306;17.056;2023-05-10T06:49:49;14.71;45.67
69225;DHT22;56333;51.306;17.056;2023-05-10T06:51:19;14.73;45.83
69225;DHT22;56333;51.306;17.056;2023-05-10T06:52:48;14.78;45.97
69225;DHT22;56333;51.306;17.056;2023-05-10T06:54:17;14.82;46.10
69225;DHT22;56333;51.306;17.056;2023-05-10T06:55:47;14.87;46.17
69225;DHT22;56333;51.306;17.056;2023-05-10T06:57:18;14.90;46.35
69225;DHT22;56333;51.306;17.056;2023-05-10T06:58:46;14.94;46.03
69225;DHT22;56333;51.306;17.056;2023-05-10T07:00:17;14.97;46.55
69225;DHT22;56333;51.306;17.056;2023-05-10T07:01:46;15.03;46.28
69225;DHT22;56333;51.306;17.056;2023-05-10T07:03:15;15.07;46.15
69225;DHT22;56333;51.306;17.056;2023-05-10T07:04:44;15.12;46.10
69225;DHT22;56333;51.306;17.056;2023-05-10T07:06:16;15.16;46.10
69225;DHT22;56333;51.306;17.056;2023-05-10T07:07:45;15.19;46.20
69225;DHT22;56333;51.306;17.056;2023-05-10T07:09:14;15.23;46.10
69225;DHT22;56333;51.306;17.056;2023-05-10T07:10:44;15.29;45.97
69225;DHT22;56333;51.306;17.056;2023-05-10T07:12:13;15.31;46.22
69225;DHT22;56333;51.306;17.056;2023-05-10T07:13:45;15.38;46.20
69225;DHT22;56333;51.306;17.056;2023-05-10T07:15:14;15.42;46.25
69225;DHT22;56333;51.306;17.056;2023-05-10T07:16:43;15.47;46.28
69225;DHT22;56333;51.306;17.056;2023-05-10T07:18:15;15.50;46.30
69225;DHT22;56333;51.306;17.056;2023-05-10T07:19:44;15.55;46.30
69225;DHT22;56333;51.306;17.056;2023-05-10T07:21:14;15.59;46.20
69225;DHT22;56333;51.306;17.056;2023-05-10T07:22:43;15.62;46.10
69225;DHT22;56333;51.306;17.056;2023-05-10T07:24:12;15.66;45.85
69225;DHT22;56333;51.306;17.056;2023-05-10T07:25:41;15.66;45.90
69225;DHT22;56333;51.306;17.056;2023-05-10T07:27:12;15.69;45.92
69225;DHT22;56333;51.306;17.056;2023-05-10T07:28:41;15.73;46.40
69225;DHT22;56333;51.306;17.056;2023-05-10T07:30:11;15.78;46.28
69225;DHT22;56333;51.306;17.056;2023-05-10T07:31:41;15.84;46.58
69225;DHT22;56333;51.306;17.056;2023-05-10T07:33:11;15.90;46.50
69225;DHT22;56333;51.306;17.056;2023-05-10T07:34:44;15.97;46.53
69225;DHT22;56333;51.306;17.056;2023-05-10T07:36:13;16.01;46.28
69225;DHT22;56333;51.306;17.056;2023-05-10T07:37:41;16.06;46.42
69225;DHT22;56333;51.306;17.056;2023-05-10T07:39:13;16.09;46.15
69225;DHT22;56333;51.306;17.056;2023-05-10T07:40:42;16.12;45.88
69225;DHT22;56333;51.306;17.056;2023-05-10T07:42:11;16.15;45.85
69225;DHT22;56333;51.306;17.056;2023-05-10T07:43:40;16.16;46.38
69225;DHT22;56333;51.306;17.056;2023-05-10T07:45:14;16.22;46.25
69225;DHT22;56333;51.306;17.056;2023-05-10T07:46:43;16.27;46.13
69225;DHT22;56333;51.306;17.056;2023-05-10T07:48:13;16.28;46.00
69225;DHT22;56333;51.306;17.056;2023-05-10T07:49:42;16.31;46.13
69225;DHT22;56333;51.306;17.056;2023-05-10T07:51:11;16.35;46.28
69225;DHT22;56333;51.306;17.056;2023-05-10T07:52:40;16.40;46.28
69225;DHT22;56333;51.306;17.056;2023-05-10T07:54:09;16.48;46.53
69225;DHT22;56333;51.306;17.056;2023-05-10T07:55:38;16.52;46.38
69225;DHT22;56333;51.306;17.056;2023-05-10T07:57:08;16.56;46.30
69225;DHT22;56333;51.306;17.056;2023-05-10T07:58:38;16.60;46.47
69225;DHT22;56333;51.306;17.056;2023-05-10T08:00:11;16.65;46.58
69225;DHT22;56333;51.306;17.056;2023-05-10T08:01:44;16.67;46.38
69225;DHT22;56333;51.306;17.056;2023-05-10T08:03:13;16.72;46.40
69225;DHT22;56333;51.306;17.056;2023-05-10T08:04:42;16.75;46.53
69225;DHT22;56333;51.306;17.056;2023-05-10T08:06:12;16.80;46.67
69225;DHT22;56333;51.306;17.056;2023-05-10T08:07:42;16.83;46.78
69225;DHT22;56333;51.306;17.056;2023-05-10T08:09:11;16.88;46.63
69225;DHT22;56333;51.306;17.056;2023-05-10T08:10:40;16.88;46.58
69225;DHT22;56333;51.306;17.056;2023-05-10T08:12:09;16.91;46.47
69225;DHT22;56333;51.306;17.056;2023-05-10T08:13:38;16.93;46.63
69225;DHT22;56333;51.306;17.056;2023-05-10T08:15:08;16.96;46.85
69225;DHT22;56333;51.306;17.056;2023-05-10T08:16:38;17.02;46.80
69225;DHT22;56333;51.306;17.056;2023-05-10T08:18:07;17.06;46.63
69225;DHT22;56333;51.306;17.056;2023-05-10T08:19:37;17.09;46.55
69225;DHT22;56333;51.306;17.056;2023-05-10T08:21:06;17.13;46.60
69225;DHT22;56333;51.306;17.056;2023-05-10T08:22:38;17.14;46.70
69225;DHT22;56333;51.306;17.056;2023-05-10T08:24:07;17.17;46.70
69225;DHT22;56333;51.306;17.056;2023-05-10T08:25:36;17.19;46.85
69225;DHT22;56333;51.306;17.056;2023-05-10T08:27:05;17.22;46.78
69225;DHT22;56333;51.306;17.056;2023-05-10T08:28:34;17.24;46.97
69225;DHT22;56333;51.306;17.056;2023-05-10T08:30:04;17.32;46.85
69225;DHT22;56333;51.306;17.056;2023-05-10T08:31:37;17.33;46.88
69225;DHT22;56333;51.306;17.056;2023-05-10T08:33:06;17.36;46.95
69225;DHT22;56333;51.306;17.056;2023-05-10T08:34:35;17.43;46.92
69225;DHT22;56333;51.306;17.056;2023-05-10T08:36:04;17.50;47.08
69225;DHT22;56333;51.306;17.056;2023-05-10T08:37:33;17.54;47.15
69225;DHT22;56333;51.306;17.056;2023-05-10T08:39:03;17.59;46.92
69225;DHT22;56333;51.306;17.056;2023-05-10T08:40:32;17.60;46.53
69225;DHT22;56333;51.306;17.056;2023-05-10T08:42:03;17.60;46.67
69225;DHT22;56333;51.306;17.056;2023-05-10T08:43:33;17.62;46.70
69225;DHT22;56333;51.306;17.056;2023-05-10T08:45:07;17.64;46.63
69225;DHT22;56333;51.306;17.056;2023-05-10T08:46:38;17.67;46.50
69225;DHT22;56333;51.306;17.056;2023-05-10T08:48:13;17.68;46.53
69225;DHT22;56333;51.306;17.056;2023-05-10T08:49:43;17.70;46.25
69225;DHT22;56333;51.306;17.056;2023-05-10T08:51:17;17.71;46.45
69225;DHT22;56333;51.306;17.056;2023-05-10T08:52:47;17.74;46.78
69225;DHT22;56333;51.306;17.056;2023-05-10T08:54:19;17.80;46.42
69225;DHT22;56333;51.306;17.056;2023-05-10T08:55:47;17.83;46.35
69225;DHT22;56333;51.306;17.056;2023-05-10T08:57:16;17.82;46.25
69225;DHT22;56333;51.306;17.056;2023-05-10T08:58:46;17.87;46.15
69225;DHT22;56333;51.306;17.056;2023-05-10T09:00:16;17.90;45.97
69225;DHT22;56333;51.306;17.056;2023-05-10T09:01:48;17.88;46.10
69225;DHT22;56333;51.306;17.056;2023-05-10T09:03:19;17.94;46.33
69225;DHT22;56333;51.306;17.056;2023-05-10T09:04:49;18.01;46.50
69225;DHT22;56333;51.306;17.056;2023-05-10T09:06:17;18.07;46.20
69225;DHT22;56333;51.306;17.056;2023-05-10T09:07:47;18.11;46.17
69225;DHT22;56333;51.306;17.056;2023-05-10T09:09:17;18.17;46.13
69225;DHT22;56333;51.306;17.056;2023-05-10T09:10:46;18.22;45.95
69225;DHT22;56333;51.306;17.056;2023-05-10T09:12:16;18.26;45.47
69225;DHT22;56333;51.306;17.056;2023-05-10T09:13:46;18.27;45.40
69225;DHT22;56333;51.306;17.056;2023-05-10T09:15:17;18.31;45.60
69225;DHT22;56333;51.306;17.056;2023-05-10T09:16:46;18.34;45.35
69225;DHT22;56333;51.306;17.056;2023-05-10T09:18:15;18.38;44.97
69225;DHT22;56333;51.306;17.056;2023-05-10T09:19:45;18.40;45.13
69225;DHT22;56333;51.306;17.056;2023-05-10T09:21:14;18.44;45.30
69225;DHT22;56333;51.306;17.056;2023-05-10T09:22:44;18.50;45.63
69225;DHT22;56333;51.306;17.056;2023-05-10T09:24:13;18.56;45.42
69225;DHT22;56333;51.306;17.056;2023-05-10T09:25:42;18.63;45.28
69225;DHT22;56333;51.306;17.056;2023-05-10T09:27:11;18.68;44.72
69225;DHT22;56333;51.306;17.056;2023-05-10T09:28:52;18.67;44.38